Time;durP1;ratioP1;P1;durP2;ratioP2;P2;SDS_P1;SDS_P2;PMS_P1;PMS_P2;Temp;Humidity;BMP_temperature;BMP_pressure;BME280_temperature;BME280_humidity;BME280_pressure;Samples;Min_cycle;Max_cycle;Signal;HPM_P1;HPM_P2
2022/10/04 00:02:02;;;;;;;6.05;2.10;;;;;;;11.41;73.46;100233.28;4449878;32;33701;-93
2022/10/04 00:04:41;;;;;;;8.95;1.90;;;;;;;11.72;72.42;100237.34;4424018;32;33264;-93
2022/10/04 00:07:12;;;;;;;4.28;2.20;;;;;;;11.41;73.62;100235.88;4448066;32;31866;-93
2022/10/04 00:09:54;;;;;;;5.25;1.67;;;;;;;11.54;73.10;100237.37;4451858;32;33504;-93
2022/10/04 00:12:38;;;;;;;4.70;1.70;;;;;;;11.29;74.10;100237.91;4453564;32;32732;-91
2022/10/04 00:15:29;;;;;;;9.65;2.10;;;;;;;11.25;74.57;100246.34;4422659;32;32365;-94
2022/10/04 00:18:06;;;;;;;7.68;2.70;;;;;;;11.48;73.79;100248.34;4421867;32;33708;-94
2022/10/04 00:21:04;;;;;;;6.07;2.00;;;;;;;11.50;73.69;100257.09;4444774;32;34956;-92
2022/10/04 00:23:34;;;;;;;9.82;2.60;;;;;;;11.52;73.65;100255.44;4430713;32;32575;-93
2022/10/04 00:26:04;;;;;;;4.97;1.98;;;;;;;11.31;74.64;100250.09;4450060;32;33513;-93
2022/10/04 00:28:45;;;;;;;4.95;1.50;;;;;;;11.46;74.02;100249.97;4433856;32;32671;-93
2022/10/04 00:31:18;;;;;;;6.95;1.67;;;;;;;11.42;74.21;100248.06;4439405;32;32424;-92
2022/10/04 00:33:49;;;;;;;6.75;2.08;;;;;;;11.46;74.04;100249.09;4427277;32;32518;-93
2022/10/04 00:36:22;;;;;;;6.55;2.00;;;;;;;11.53;73.86;100241.69;4440072;32;34087;-92
2022/10/04 00:39:05;;;;;;;6.87;2.00;;;;;;;11.39;74.54;100240.97;4462272;32;34430;-92
2022/10/04 00:41:57;;;;;;;7.68;1.83;;;;;;;11.81;72.85;100227.41;4447056;32;32008;-93
2022/10/04 00:44:27;;;;;;;6.97;2.53;;;;;;;11.83;73.00;100238.75;4419026;32;32656;-92
2022/10/04 00:46:56;;;;;;;5.78;2.00;;;;;;;11.67;73.55;100234.53;4422032;32;33323;-93
2022/10/04 00:49:28;;;;;;;6.15;1.95;;;;;;;11.50;74.20;100228.53;4429858;32;33780;-93
2022/10/04 00:52:27;;;;;;;5.05;1.98;;;;;;;11.34;74.94;100223.47;4427856;32;33058;-92
2022/10/04 00:54:57;;;;;;;5.72;1.98;;;;;;;11.58;74.37;100229.78;4410303;32;32719;-92
2022/10/04 00:57:38;;;;;;;6.12;1.95;;;;;;;11.64;74.05;100230.91;4415929;32;33234;-92
2022/10/04 01:00:18;;;;;;;6.57;2.33;;;;;;;11.78;74.03;100233.34;4445318;32;33721;-92
2022/10/04 01:02:52;;;;;;;6.00;2.22;;;;;;;11.68;74.52;100228.53;4415377;32;32648;-93
2022/10/04 01:05:25;;;;;;;5.70;2.17;;;;;;;11.70;74.67;100228.59;4420114;32;32037;-94
2022/10/04 01:08:04;;;;;;;5.75;2.30;;;;;;;11.85;74.12;100228.44;4423807;32;32444;-93
2022/10/04 01:10:38;;;;;;;6.22;2.00;;;;;;;11.46;76.14;100231.81;4442865;32;32555;-92
2022/10/04 01:13:13;;;;;;;6.57;2.03;;;;;;;11.18;76.25;100227.91;4420351;32;33183;-94
2022/10/04 01:15:51;;;;;;;4.97;1.70;;;;;;;11.53;75.77;100231.31;4429123;32;31909;-93
2022/10/04 01:18:19;;;;;;;5.72;2.30;;;;;;;11.05;77.24;100225.50;4438180;32;32168;-93
2022/10/04 01:21:04;;;;;;;7.18;2.20;;;;;;;11.74;75.08;100223.66;4454147;32;32742;-92
2022/10/04 01:23:40;;;;;;;;;;;;;;;11.69;74.96;100211.28;4429316;32;33047;-93
2022/10/04 01:26:30;;;;;;;4.10;1.73;;;;;;;10.82;78.97;100211.41;4438109;32;33445;-94
2022/10/04 01:29:19;;;;;;;7.32;2.30;;;;;;;11.09;77.77;100205.81;4435411;32;32530;-92
2022/10/04 01:31:54;;;;;;;9.10;1.90;;;;;;;10.99;78.21;100209.63;4454075;32;33922;-92
2022/10/04 01:34:29;;;;;;;8.10;2.45;;;;;;;11.12;77.84;100216.31;4432917;32;34606;-93
2022/10/04 01:36:58;;;;;;;8.10;2.20;;;;;;;11.26;77.41;100219.56;4439079;32;33437;-94
2022/10/04 01:39:27;;;;;;;10.57;2.47;;;;;;;11.37;77.16;100215.81;4435806;32;32658;-92
2022/10/04 01:42:09;;;;;;;5.22;2.12;;;;;;;11.43;77.30;100217.81;4444022;32;33650;-94
2022/10/04 01:44:47;;;;;;;4.93;1.85;;;;;;;11.25;78.45;100215.22;4426692;32;32968;-92
2022/10/04 01:47:20;;;;;;;5.75;2.40;;;;;;;11.35;77.99;100217.44;4443393;32;33348;-92
2022/10/04 01:49:51;;;;;;;6.18;2.33;;;;;;;11.48;77.40;100222.41;4426788;32;32607;-93
2022/10/04 01:52:22;;;;;;;6.65;2.55;;;;;;;11.46;77.62;100234.41;4431220;32;32650;-93
2022/10/04 01:54:59;;;;;;;6.45;2.90;;;;;;;11.54;77.34;100234.78;4432551;32;32978;-93
2022/10/04 01:57:40;;;;;;;6.05;2.30;;;;;;;11.55;77.23;100234.84;4431824;32;32571;-92
2022/10/04 02:00:11;;;;;;;5.70;2.12;;;;;;;11.83;75.71;100236.16;4434997;32;32208;-94
2022/10/04 02:02:51;;;;;;;6.28;2.22;;;;;;;10.97;78.93;100232.91;4417628;32;32194;-93
2022/10/04 02:05:30;;;;;;;5.57;2.20;;;;;;;11.39;76.80;100237.50;4432789;32;33436;-93
2022/10/04 02:08:03;;;;;;;4.95;2.17;;;;;;;12.15;74.02;100231.59;4425704;32;33224;-93
2022/10/04 02:10:32;;;;;;;7.40;2.58;;;;;;;11.26;77.35;100230.87;4427395;32;32114;-94
2022/10/04 02:13:00;;;;;;;9.18;2.30;;;;;;;11.73;76.32;100233.94;4426500;32;32978;-94
2022/10/04 02:15:29;;;;;;;6.37;2.08;;;;;;;11.67;76.37;100233.66;4430753;32;32228;-92
2022/10/04 02:17:57;;;;;;;6.25;2.12;;;;;;;11.65;76.05;100235.25;4439075;32;32703;-93
2022/10/04 02:20:26;;;;;;;7.25;3.03;;;;;;;11.79;76.17;100234.22;4433558;32;32712;-93
2022/10/04 02:23:01;;;;;;;6.72;2.47;;;;;;;12.04;75.05;100236.28;4434957;32;33185;-93
2022/10/04 02:25:29;;;;;;;13.15;2.95;;;;;;;11.18;78.37;100237.34;4425855;32;33880;-92
2022/10/04 02:27:57;;;;;;;6.78;2.65;;;;;;;10.59;81.41;100236.13;4440545;32;33403;-93
2022/10/04 02:30:24;;;;;;;6.80;2.40;;;;;;;10.49;82.45;100244.22;4411325;32;33321;-93
2022/10/04 02:32:59;;;;;;;5.20;2.40;;;;;;;11.06;80.16;100236.75;4436914;32;33699;-92
2022/10/04 02:35:58;;;;;;;4.70;2.33;;;;;;;10.20;83.21;100241.88;4427903;32;32830;-93
2022/10/04 02:38:33;;;;;;;6.03;2.30;;;;;;;10.25;84.08;100247.28;4420583;32;32409;-94
2022/10/04 02:41:05;;;;;;;10.45;3.10;;;;;;;10.03;84.52;100245.25;4426168;32;33235;-93
2022/10/04 02:43:57;;;;;;;5.87;2.47;;;;;;;9.76;86.12;100244.63;4431675;32;33112;-93
2022/10/04 02:46:45;;;;;;;7.68;2.90;;;;;;;10.15;84.93;100250.19;4433324;32;32784;-94
2022/10/04 02:49:30;;;;;;;7.03;2.53;;;;;;;9.77;86.59;100246.41;4416304;32;31871;-93
2022/10/04 02:52:02;;;;;;;6.43;2.90;;;;;;;9.77;87.73;100246.41;4424364;32;32213;-93
2022/10/04 02:54:34;;;;;;;6.53;2.95;;;;;;;9.65;88.16;100251.78;4428550;32;34160;-94
2022/10/04 02:57:02;;;;;;;8.55;2.50;;;;;;;9.77;87.31;100243.81;4449715;32;34547;-93
2022/10/04 02:59:30;;;;;;;6.80;2.22;;;;;;;9.69;88.06;100237.34;4423571;32;32351;-92
2022/10/04 03:02:03;;;;;;;12.80;2.55;;;;;;;9.70;88.01;100244.31;4420847;32;33078;-93
2022/10/04 03:04:32;;;;;;;6.68;2.70;;;;;;;10.26;84.94;100243.87;4424140;32;32287;-94
2022/10/04 03:07:01;;;;;;;9.45;2.20;;;;;;;10.10;86.56;100243.87;4414621;32;31919;-93
2022/10/04 03:09:29;;;;;;;6.87;2.45;;;;;;;10.17;86.29;100239.09;4426705;32;32990;-94
2022/10/04 03:11:57;;;;;;;6.53;2.40;;;;;;;10.29;85.45;100244.03;4423686;32;31881;-92
2022/10/04 03:14:27;;;;;;;6.50;2.58;;;;;;;10.82;81.20;100238.19;4431986;32;33690;-94
2022/10/04 03:16:59;;;;;;;8.63;2.15;;;;;;;9.83;86.93;100242.47;4441425;32;32375;-93
2022/10/04 03:19:29;;;;;;;5.78;2.20;;;;;;;9.72;87.39;100238.41;4425066;32;33733;-93
2022/10/04 03:22:00;;;;;;;4.85;1.73;;;;;;;10.15;85.85;100237.25;4423022;32;33225;-94
2022/10/04 03:24:45;;;;;;;6.20;1.90;;;;;;;10.55;84.63;100236.78;4423766;32;32507;-94
2022/10/04 03:27:18;;;;;;;;;;;;;;;10.26;86.47;100238.72;4424013;32;33927;-93
2022/10/04 03:29:46;;;;;;;6.03;2.33;;;;;;;10.22;86.34;100247.13;4424620;32;32300;-94
2022/10/04 03:32:15;;;;;;;5.90;2.10;;;;;;;10.32;85.61;100248.53;4419172;32;33679;-92
2022/10/04 03:34:59;;;;;;;6.00;2.22;;;;;;;10.30;84.18;100248.44;4411876;32;33653;-94
2022/10/04 03:37:29;;;;;;;6.43;2.20;;;;;;;9.88;87.34;100254.75;4425640;32;32136;-94
2022/10/04 03:39:58;;;;;;;6.20;2.25;;;;;;;9.70;88.00;100254.66;4427084;32;32167;-93
2022/10/04 03:42:28;;;;;;;9.77;2.47;;;;;;;9.71;88.23;100248.66;4427444;32;32453;-94
2022/10/04 03:45:01;;;;;;;8.15;2.45;;;;;;;10.10;85.40;100256.81;4422157;32;33123;-94
2022/10/04 03:47:31;;;;;;;7.00;2.42;;;;;;;9.56;88.96;100254.78;4425358;32;33137;-94
2022/10/04 03:50:23;;;;;;;10.15;2.40;;;;;;;9.34;89.98;100256.94;4423492;32;32960;-94
2022/10/04 03:52:56;;;;;;;7.32;2.22;;;;;;;9.90;87.56;100254.03;4433916;32;33038;-93
2022/10/04 03:55:37;;;;;;;6.30;2.60;;;;;;;10.04;86.80;100247.94;4409290;32;32570;-94
2022/10/04 03:58:07;;;;;;;9.25;2.67;;;;;;;9.45;89.56;100261.03;4412005;32;32320;-93
2022/10/04 04:01:38;;;;;;;7.80;1.85;;;;;;;9.74;89.72;100254.00;4426121;32;32120;-94
2022/10/04 04:04:14;;;;;;;8.73;2.65;;;;;;;9.71;87.78;100262.47;4439299;32;32762;-93
2022/10/04 04:06:49;;;;;;;7.43;2.62;;;;;;;9.60;88.62;100248.97;4427474;32;34508;-93
2022/10/04 04:09:46;;;;;;;6.30;2.53;;;;;;;9.39;90.30;100252.94;4420556;32;34336;-93
2022/10/04 04:12:21;;;;;;;8.10;2.53;;;;;;;9.96;86.77;100254.34;4409265;32;31786;-94
2022/10/04 04:14:50;;;;;;;5.60;2.60;;;;;;;9.50;89.57;100254.41;4439146;32;34179;-93
2022/10/04 04:17:39;;;;;;;6.12;1.98;;;;;;;9.42;90.65;100247.91;4412228;32;31973;-93
2022/10/04 04:20:26;;;;;;;8.18;2.20;;;;;;;9.96;88.44;100254.34;4434902;32;33339;-93
2022/10/04 04:22:58;;;;;;;7.90;2.20;;;;;;;9.87;87.83;100264.22;4443301;32;32437;-93
2022/10/04 04:25:28;;;;;;;7.97;2.22;;;;;;;10.21;87.45;100260.87;4424957;32;33530;-93
2022/10/04 04:28:01;;;;;;;7.93;2.15;;;;;;;9.84;88.23;100269.22;4440654;32;32104;-93
2022/10/04 04:30:31;;;;;;;4.90;2.37;;;;;;;9.91;88.07;100271.34;4438748;32;33448;-93
2022/10/04 04:33:04;;;;;;;5.50;2.28;;;;;;;9.82;88.08;100265.66;4427348;32;32011;-93
2022/10/04 04:35:35;;;;;;;7.05;2.70;;;;;;;9.61;90.62;100278.28;4417039;32;34024;-93
2022/10/04 04:38:03;;;;;;;5.62;2.15;;;;;;;9.71;89.19;100282.28;4440292;32;35595;-92
2022/10/04 04:40:31;;;;;;;9.82;2.30;;;;;;;10.17;86.48;100282.22;4454689;32;33821;-93
2022/10/04 04:43:00;;;;;;;5.22;2.12;;;;;;;9.50;90.03;100281.97;4426610;32;34120;-92
2022/10/04 04:45:29;;;;;;;9.63;2.72;;;;;;;9.92;88.25;100287.75;4436527;32;33857;-93
2022/10/04 04:47:57;;;;;;;8.05;2.97;;;;;;;10.10;86.81;100285.28;4425098;32;35029;-93
2022/10/04 04:50:30;;;;;;;9.05;2.65;;;;;;;10.12;88.13;100287.16;4434518;32;33675;-93
2022/10/04 04:53:22;;;;;;;7.90;2.80;;;;;;;10.45;84.87;100278.53;4434874;32;32026;-93
2022/10/04 04:55:55;;;;;;;7.40;3.40;;;;;;;9.92;87.49;100286.06;4429894;32;33897;-93
2022/10/04 04:58:41;;;;;;;7.28;3.20;;;;;;;9.62;89.69;100283.56;4458354;32;33977;-93
2022/10/04 05:01:28;;;;;;;10.90;2.72;;;;;;;10.32;85.38;100296.03;4428083;32;34575;-92
2022/10/04 05:04:08;;;;;;;7.80;3.28;;;;;;;9.62;90.12;100293.91;4450880;32;33305;-93
2022/10/04 05:06:40;;;;;;;8.70;3.95;;;;;;;9.97;88.64;100304.44;4454309;32;33536;-93
2022/10/04 05:09:27;;;;;;;15.02;3.67;;;;;;;9.69;90.36;100302.00;4447259;32;34652;-93
2022/10/04 05:12:01;;;;;;;8.38;3.25;;;;;;;9.82;90.28;100305.34;4447871;32;34451;-93
2022/10/04 05:14:30;;;;;;;5.70;2.62;;;;;;;9.67;90.44;100308.78;4431633;32;34300;-93
2022/10/04 05:16:58;;;;;;;5.45;2.97;;;;;;;9.78;90.22;100306.00;4406800;32;34587;-93
2022/10/04 05:19:30;;;;;;;7.70;3.35;;;;;;;9.77;91.56;100308.50;4424649;32;34005;-93
2022/10/04 05:22:00;;;;;;;9.30;3.00;;;;;;;9.81;91.35;100310.44;4414413;32;34173;-92
2022/10/04 05:24:32;;;;;;;6.82;2.95;;;;;;;9.96;90.75;100321.66;4426990;32;33657;-92
2022/10/04 05:27:02;;;;;;;8.45;3.37;;;;;;;9.77;91.44;100306.81;4423960;32;34126;-93
2022/10/04 05:29:33;;;;;;;8.43;3.40;;;;;;;9.73;91.99;100322.06;4437458;32;33739;-92
2022/10/04 05:32:15;;;;;;;7.95;3.12;;;;;;;9.72;92.09;100320.28;4413108;32;34517;-93
2022/10/04 05:34:45;;;;;;;7.32;2.95;;;;;;;10.18;90.40;100328.03;4440681;32;33129;-93
2022/10/04 05:37:41;;;;;;;8.05;2.87;;;;;;;11.13;85.85;100327.88;4425564;32;34265;-93
2022/10/04 05:40:12;;;;;;;6.80;2.87;;;;;;;10.94;86.57;100335.53;4439196;32;34570;-93
2022/10/04 05:42:44;;;;;;;11.12;3.45;;;;;;;11.50;83.54;100326.25;4434827;32;31901;-93
2022/10/04 05:45:23;;;;;;;8.32;3.00;;;;;;;12.02;80.69;100331.41;4437768;32;33011;-92
2022/10/04 05:47:53;;;;;;;9.40;3.10;;;;;;;12.24;79.29;100333.28;4438405;32;34652;-93
2022/10/04 05:50:39;;;;;;;12.73;4.18;;;;;;;10.69;85.99;100339.44;4426005;32;32108;-93
2022/10/04 05:53:34;;;;;;;9.70;5.10;;;;;;;10.25;90.22;100332.72;4440268;32;33914;-94
2022/10/04 05:56:29;;;;;;;9.32;4.32;;;;;;;10.10;92.80;100335.37;4426279;32;33854;-92
2022/10/04 05:59:11;;;;;;;7.78;4.18;;;;;;;10.23;91.89;100342.09;4426580;32;33923;-95
2022/10/04 06:01:45;;;;;;;7.47;3.42;;;;;;;10.37;92.96;100346.38;4422972;32;33212;-94
2022/10/04 06:04:38;;;;;;;7.93;3.30;;;;;;;11.28;87.91;100343.34;4435476;32;33682;-93
2022/10/04 06:07:35;;;;;;;7.43;3.90;;;;;;;10.97;89.51;100351.22;4438386;32;33556;-93
2022/10/04 06:10:43;;;;;;;8.45;3.78;;;;;;;11.71;86.24;100352.37;4438416;32;34656;-92
2022/10/04 06:13:21;;;;;;;11.50;3.35;;;;;;;11.13;90.38;100356.41;4422906;32;33938;-94
2022/10/04 06:15:56;;;;;;;8.05;3.10;;;;;;;11.12;89.21;100362.37;4437697;32;31867;-92
2022/10/04 06:18:27;;;;;;;;;;;;;;;10.92;91.57;100363.97;4449286;32;33367;-93
2022/10/04 06:21:32;;;;;;;8.05;3.00;;;;;;;11.04;90.05;100366.28;4441772;32;34347;-93
2022/10/04 06:24:09;;;;;;;8.38;2.92;;;;;;;11.51;89.83;100360.06;4448580;32;33831;-92
2022/10/04 06:26:47;;;;;;;6.37;3.08;;;;;;;11.61;88.36;100349.31;4429941;32;33684;-92
2022/10/04 06:29:19;;;;;;;6.82;2.90;;;;;;;12.04;86.84;100367.81;4449229;32;32185;-93
2022/10/04 06:31:58;;;;;;;6.32;3.15;;;;;;;11.54;88.45;100372.28;4426261;32;32214;-93
2022/10/04 06:34:51;;;;;;;6.28;2.67;;;;;;;11.27;89.63;100372.66;4425567;32;33616;-94
2022/10/04 06:37:28;;;;;;;8.65;3.42;;;;;;;12.02;86.89;100366.88;4436039;32;32305;-93
2022/10/04 06:40:50;;;;;;;9.60;3.08;;;;;;;12.53;83.53;100368.38;4455685;32;33153;-93
2022/10/04 06:43:29;;;;;;;5.43;2.67;;;;;;;12.06;87.38;100373.97;4407955;32;34290;-92
2022/10/04 06:46:07;;;;;;;8.52;3.03;;;;;;;12.73;82.73;100376.25;4422802;32;33121;-93
2022/10/04 06:48:47;;;;;;;9.15;2.67;;;;;;;13.50;79.30;100379.59;4455809;32;34010;-94
2022/10/04 06:51:24;;;;;;;8.27;3.25;;;;;;;13.74;78.12;100379.75;4453661;32;32151;-93
2022/10/04 06:54:14;;;;;;;5.97;3.33;;;;;;;12.60;82.75;100390.38;4451690;32;33429;-94
2022/10/04 06:57:21;;;;;;;6.32;3.37;;;;;;;12.50;84.29;100380.38;4443606;32;34460;-93
2022/10/04 06:59:59;;;;;;;6.60;3.40;;;;;;;12.98;80.85;100388.63;4445132;32;33959;-93
2022/10/04 07:02:30;;;;;;;6.85;3.40;;;;;;;13.64;79.20;100388.00;4441191;32;33059;-92
2022/10/04 07:05:07;;;;;;;6.87;3.65;;;;;;;13.92;77.49;100387.41;4454080;32;33753;-92
2022/10/04 07:07:46;;;;;;;8.23;3.80;;;;;;;12.32;84.63;100389.09;4431091;32;32460;-92
2022/10/04 07:10:29;;;;;;;6.78;3.35;;;;;;;13.05;82.83;100390.66;4439837;32;33853;-92
2022/10/04 07:13:04;;;;;;;6.85;3.70;;;;;;;12.22;86.51;100397.25;4431891;32;34027;-92
2022/10/04 07:16:02;;;;;;;5.78;3.20;;;;;;;12.71;85.26;100391.75;4460237;32;34328;-92
2022/10/04 07:18:56;;;;;;;9.10;3.20;;;;;;;12.65;84.56;100404.47;4438339;32;34554;-93
2022/10/04 07:21:27;;;;;;;6.87;2.85;;;;;;;13.73;80.03;100396.19;4436609;32;32655;-92
2022/10/04 07:23:57;;;;;;;5.35;2.70;;;;;;;13.17;80.78;100400.69;4426561;32;32515;-92
2022/10/04 07:26:33;;;;;;;6.47;2.95;;;;;;;12.70;83.60;100396.87;4433722;32;34135;-93
2022/10/04 07:29:19;;;;;;;8.07;3.05;;;;;;;12.54;84.75;100403.97;4433917;32;34732;-93
2022/10/04 07:31:50;;;;;;;4.95;2.42;;;;;;;12.43;84.96;100402.56;4412118;32;32971;-91
2022/10/04 07:34:25;;;;;;;9.05;3.28;;;;;;;12.85;82.96;100407.09;4427577;32;33830;-93
2022/10/04 07:36:54;;;;;;;;;;;;;;;13.32;80.48;100405.72;4439697;32;33463;-92
2022/10/04 07:39:29;;;;;;;14.32;7.97;;;;;;;13.98;78.23;100397.19;4434895;32;34122;-93
2022/10/04 07:42:20;;;;;;;8.25;3.90;;;;;;;13.69;79.10;100392.56;4439421;32;33615;-93
2022/10/04 07:45:17;;;;;;;4.80;2.00;;;;;;;13.33;79.26;100397.13;4439050;32;33226;-90
2022/10/04 07:47:46;;;;;;;6.03;2.12;;;;;;;13.86;78.67;100395.84;4431254;32;33596;-91
2022/10/04 07:50:33;;;;;;;8.07;2.20;;;;;;;14.23;76.79;100392.13;4452856;32;33804;-91
2022/10/04 07:53:15;;;;;;;5.75;1.77;;;;;;;14.22;75.04;100392.97;4443783;32;33396;-90
2022/10/04 07:55:55;;;;;;;5.45;1.62;;;;;;;13.91;76.81;100399.56;4432006;32;32556;-91
2022/10/04 07:58:39;;;;;;;3.85;1.60;;;;;;;14.18;75.20;100396.28;4437944;32;32976;-90
2022/10/04 08:01:33;;;;;;;3.53;1.58;;;;;;;13.35;78.62;100395.47;4437607;32;33458;-91
2022/10/04 08:04:19;;;;;;;4.18;1.40;;;;;;;13.59;77.55;100402.53;4455119;32;34241;-92
2022/10/04 08:06:59;;;;;;;4.25;1.37;;;;;;;14.39;74.21;100403.16;4451622;32;33261;-91
2022/10/04 08:09:41;;;;;;;6.15;1.90;;;;;;;14.43;73.76;100410.25;4441830;32;33887;-92
2022/10/04 08:12:33;;;;;;;2.62;1.05;;;;;;;14.19;74.85;100413.69;4434560;32;34795;-93
2022/10/04 08:15:13;;;;;;;3.58;1.20;;;;;;;14.75;71.39;100409.78;4417327;32;32028;-95
2022/10/04 08:18:02;;;;;;;3.72;1.17;;;;;;;14.96;70.37;100408.84;4433114;32;33977;-93
2022/10/04 08:20:44;;;;;;;4.55;1.27;;;;;;;15.07;70.42;100412.72;4444594;32;34564;-94
2022/10/04 08:23:39;;;;;;;3.17;1.40;;;;;;;15.25;67.56;100422.06;4426720;32;34794;-93
2022/10/04 08:26:37;;;;;;;3.47;1.48;;;;;;;15.21;68.65;100421.03;4444389;32;34018;-93
2022/10/04 08:29:41;;;;;;;3.87;1.30;;;;;;;15.00;69.94;100430.72;4442298;32;33521;-94
2022/10/04 08:32:22;;;;;;;5.90;1.75;;;;;;;14.81;70.76;100431.72;4429253;32;34353;-92
2022/10/04 08:35:15;;;;;;;3.17;1.10;;;;;;;14.91;69.72;100444.28;4434914;32;34077;-93
2022/10/04 08:38:02;;;;;;;4.35;1.52;;;;;;;15.48;67.33;100430.69;4448647;32;33870;-92
2022/10/04 08:40:57;;;;;;;4.90;1.58;;;;;;;15.54;66.84;100431.78;4428586;32;33856;-93
2022/10/04 08:43:56;;;;;;;2.87;1.30;;;;;;;15.57;66.89;100431.03;4437915;32;33998;-93
2022/10/04 08:46:39;;;;;;;2.75;1.20;;;;;;;15.60;66.81;100438.06;4445785;32;32742;-92
2022/10/04 08:49:45;;;;;;;4.05;1.25;;;;;;;15.64;65.79;100427.75;4450057;32;34188;-91
2022/10/04 08:52:32;;;;;;;2.28;1.20;;;;;;;15.89;64.33;100432.12;4452364;32;34307;-93
2022/10/04 08:55:14;;;;;;;6.35;1.60;;;;;;;16.19;64.81;100436.59;4421864;32;33789;-94
2022/10/04 08:58:14;;;;;;;4.03;1.20;;;;;;;16.17;65.52;100437.37;4431680;32;32971;-94
2022/10/04 09:01:12;;;;;;;5.18;1.40;;;;;;;16.43;63.17;100432.97;4423315;32;34541;-94
2022/10/04 09:04:05;;;;;;;4.37;0.90;;;;;;;16.75;61.35;100441.81;4430334;32;33202;-92
2022/10/04 09:06:44;;;;;;;3.25;1.20;;;;;;;16.80;60.18;100439.31;4428461;32;32345;-92
2022/10/04 09:09:35;;;;;;;4.00;1.37;;;;;;;16.62;61.26;100435.31;4443267;32;33793;-92
2022/10/04 09:12:21;;;;;;;3.78;1.30;;;;;;;16.07;61.02;100438.78;4420301;32;34551;-93
2022/10/04 09:15:02;;;;;;;5.65;1.30;;;;;;;16.36;61.20;100442.38;4428511;32;33779;-92
2022/10/04 09:17:53;;;;;;;3.72;1.10;;;;;;;15.93;61.91;100435.72;4439787;32;33970;-92
2022/10/04 09:20:42;;;;;;;6.37;1.33;;;;;;;15.80;63.00;100450.13;4433932;32;33394;-94
2022/10/04 09:23:37;;;;;;;7.28;1.40;;;;;;;16.27;61.68;100442.94;4440475;32;35454;-92
2022/10/04 09:26:21;;;;;;;3.22;1.20;;;;;;;16.36;63.29;100434.53;4448921;32;31425;-92
2022/10/04 09:29:13;;;;;;;8.23;1.87;;;;;;;16.50;61.33;100420.13;4444174;32;33947;-91
2022/10/04 09:32:22;;;;;;;3.00;1.40;;;;;;;16.24;61.77;100427.16;4442895;32;33202;-93
2022/10/04 09:35:14;;;;;;;4.28;1.37;;;;;;;16.23;63.00;100435.84;4379322;32;33347;-93
2022/10/04 09:37:47;;;;;;;6.53;1.55;;;;;;;16.35;61.22;100437.09;4438117;32;33497;-92
2022/10/04 09:40:50;;;;;;;4.85;1.20;;;;;;;15.92;63.73;100440.06;4436437;32;34765;-93
2022/10/04 09:46:43;;;;;;;3.85;1.25;;;;;;;15.91;62.64;100422.59;4440971;32;34375;-91
2022/10/04 09:49:49;;;;;;;6.45;1.80;;;;;;;15.98;62.51;100428.06;4437756;32;33027;-92
2022/10/04 09:52:20;;;;;;;5.00;1.50;;;;;;;15.96;62.97;100434.97;4456316;32;33605;-92
2022/10/04 09:55:05;;;;;;;4.32;1.83;;;;;;;16.53;60.87;100435.03;4430057;32;33625;-91
2022/10/04 09:57:56;;;;;;;4.80;1.40;;;;;;;15.59;65.00;100451.94;4435840;32;33667;-92
2022/10/04 10:00:35;;;;;;;6.22;1.77;;;;;;;15.91;63.54;100453.97;4456018;32;33370;-91
2022/10/04 10:03:12;;;;;;;7.62;1.90;;;;;;;15.16;65.69;100458.25;4417899;32;31952;-93
2022/10/04 10:06:07;;;;;;;3.33;1.20;;;;;;;15.68;65.43;100454.88;4432888;32;32555;-92
2022/10/04 10:09:10;;;;;;;4.28;1.77;;;;;;;15.94;63.61;100450.59;4440643;32;32840;-93
2022/10/04 10:15:05;;;;;;;5.75;1.60;;;;;;;16.23;63.76;100450.66;4440502;32;34225;-93
2022/10/04 10:17:44;;;;;;;3.72;1.52;;;;;;;16.01;64.70;100454.28;4440989;32;32200;-91
2022/10/04 10:20:37;;;;;;;3.22;1.30;;;;;;;16.00;62.61;100461.25;4423688;32;31711;-91
2022/10/04 10:23:26;;;;;;;3.97;1.17;;;;;;;16.09;61.69;100473.75;4429089;32;175773;-92
2022/10/04 10:26:02;;;;;;;2.62;1.00;;;;;;;16.01;60.90;100462.12;4455382;32;34631;-91
2022/10/04 10:28:48;;;;;;;2.70;1.02;;;;;;;15.95;59.62;100459.31;4441988;32;33875;-90
2022/10/04 10:31:29;;;;;;;4.22;1.37;;;;;;;15.80;60.67;100476.25;4440222;32;32716;-91
2022/10/04 10:34:25;;;;;;;4.22;1.42;;;;;;;15.49;61.25;100479.44;4444003;32;33349;-91
2022/10/04 10:37:03;;;;;;;4.95;1.20;;;;;;;15.56;61.78;100484.06;4439464;32;34402;-91
2022/10/04 10:39:52;;;;;;;4.90;1.23;;;;;;;15.54;62.38;100485.72;4442271;32;34010;-90
2022/10/04 10:42:26;;;;;;;4.68;1.75;;;;;;;15.74;62.37;100476.00;4439897;32;32647;-92
2022/10/04 10:45:28;;;;;;;4.85;1.20;;;;;;;15.26;63.59;100482.13;4430375;32;34436;-91
2022/10/04 10:48:12;;;;;;;5.32;1.08;;;;;;;15.36;61.94;100483.38;4415475;32;33713;-91
2022/10/04 10:51:01;;;;;;;3.47;0.82;;;;;;;15.72;60.07;100478.56;4446483;32;33801;-93
2022/10/04 10:53:45;;;;;;;5.05;1.60;;;;;;;15.85;60.37;100479.88;4432323;32;32558;-92
2022/10/04 10:56:31;;;;;;;3.65;1.40;;;;;;;15.99;59.54;100469.00;4441049;32;32967;-91
2022/10/04 10:59:24;;;;;;;2.55;1.05;;;;;;;15.77;60.87;100472.62;4441817;32;33676;-92
2022/10/04 11:02:22;;;;;;;3.35;1.00;;;;;;;15.74;62.14;100465.56;4447291;32;31894;-93
2022/10/04 11:05:22;;;;;;;4.43;2.12;;;;;;;16.18;60.14;100458.31;4434405;32;32726;-90
2022/10/04 11:08:13;;;;;;;3.83;1.58;;;;;;;16.80;60.99;100470.72;4440300;32;33312;-91
2022/10/04 11:11:02;;;;;;;3.58;1.60;;;;;;;16.20;62.58;100471.47;4442965;32;33808;-89
2022/10/04 11:13:48;;;;;;;4.32;1.40;;;;;;;16.56;61.19;100471.75;4439798;32;35407;-91
2022/10/04 11:16:46;;;;;;;6.72;1.80;;;;;;;17.22;55.64;100459.78;4445697;32;33823;-90
2022/10/04 11:19:46;;;;;;;3.92;1.70;;;;;;;16.75;59.75;100465.34;4453595;32;33314;-91
2022/10/04 11:22:32;;;;;;;4.05;1.45;;;;;;;16.21;59.89;100458.44;4439764;32;32945;-91
2022/10/04 11:25:24;;;;;;;5.18;1.65;;;;;;;16.06;62.40;100471.00;4461456;32;33936;-90
2022/10/04 11:28:07;;;;;;;3.70;1.75;;;;;;;16.92;60.89;100472.84;4435050;32;33670;-90
2022/10/04 11:30:57;;;;;;;6.65;2.75;;;;;;;16.88;60.86;100477.09;4456564;32;34014;-89
2022/10/04 11:33:28;;;;;;;8.00;3.40;;;;;;;16.74;63.03;100465.31;4418813;32;34576;-92
2022/10/04 11:36:10;;;;;;;4.95;2.12;;;;;;;16.91;62.94;100458.88;4456963;32;34613;-90
2022/10/04 11:39:02;;;;;;;7.80;2.30;;;;;;;17.34;60.72;100465.34;4444384;32;34749;-90
2022/10/04 11:41:40;;;;;;;8.00;2.62;;;;;;;17.85;59.25;100462.41;4461284;32;33678;-91
2022/10/04 11:44:54;;;;;;;5.03;1.75;;;;;;;16.98;60.65;100471.31;4429716;32;33608;-91
2022/10/04 11:47:46;;;;;;;5.70;2.37;;;;;;;17.96;58.94;100461.78;4452278;32;35066;-89
2022/10/04 11:50:48;;;;;;;4.72;1.58;;;;;;;17.45;57.83;100461.28;4451904;32;34038;-90
2022/10/04 11:53:38;;;;;;;6.82;1.67;;;;;;;17.21;58.24;100464.13;4451940;32;33380;-89
2022/10/04 11:56:25;;;;;;;5.37;1.70;;;;;;;17.28;58.90;100476.53;4434858;32;33342;-92
2022/10/04 11:59:14;;;;;;;3.92;1.60;;;;;;;17.31;59.25;100473.12;4436324;32;34749;-90
2022/10/04 12:02:01;;;;;;;4.82;1.50;;;;;;;16.75;60.56;100467.09;4432419;32;33813;-90
2022/10/04 12:04:32;;;;;;;5.50;1.40;;;;;;;16.67;59.60;100469.47;4449857;32;34176;-90
2022/10/04 12:07:07;;;;;;;6.35;1.77;;;;;;;16.65;59.42;100477.28;4447535;32;33674;-90
2022/10/04 12:09:37;;;;;;;;;;;;;;;17.06;59.26;100469.81;4451853;32;33834;-90
2022/10/04 12:12:37;;;;;;;3.33;1.25;;;;;;;17.00;57.81;100477.47;4435837;32;34319;-91
2022/10/04 12:15:37;;;;;;;5.68;1.50;;;;;;;16.81;57.92;100473.38;4454951;32;32779;-90
2022/10/04 12:18:27;;;;;;;3.92;1.40;;;;;;;16.92;57.60;100471.13;4449700;32;33974;-90
2022/10/04 12:21:22;;;;;;;4.28;2.12;;;;;;;16.47;59.45;100476.69;4449569;32;34674;-90
2022/10/04 12:24:11;;;;;;;7.00;3.17;;;;;;;15.66;64.18;100482.66;4429281;32;33225;-88
2022/10/04 12:27:23;;;;;;;5.53;2.08;;;;;;;15.22;65.46;100495.00;4454444;32;34996;-90
2022/10/04 12:30:13;;;;;;;5.00;1.95;;;;;;;16.16;62.95;100498.34;4423424;32;34615;-90
2022/10/04 12:33:02;;;;;;;4.95;1.98;;;;;;;16.18;62.96;100486.19;4427202;32;32757;-89
2022/10/04 12:35:52;;;;;;;4.28;1.83;;;;;;;15.67;65.26;100489.69;4455395;32;33017;-90
2022/10/04 12:38:59;;;;;;;5.60;2.10;;;;;;;16.02;65.02;100492.66;4439353;32;33945;-88
2022/10/04 12:41:47;;;;;;;;;;;;;;;15.59;67.83;100493.72;4387977;32;34631;-89